Blue Star Naxos — SZUI — position and weather

sailwx.info

Track history (hours):
 
Tides and Currents Weather Stations Pressure Air Temp Water Temp Dewpoint Dewpoint Depression Visibility Wind Speed Wind Dir Waves Ship Positions

Blue Star Naxos

Last reported at 2015-Mar-30 06:33 UTC. Time now 2015-Mar-30 07:08 UTC.
Position N 37°06' E 025°22'.

Length 124 m; draft 5 m.

Type: Passenger vessel. MMSI: 239923000.

Date/timePositionNaut miles runAvg speedWind from/ knotsBaromVisibWave heightAir tempDewpointWater temp
2015-Mar-30 06:33N 37°06' E 025°22'6 6.4
2015-Mar-30 05:33N 37°00' E 025°19'1210.3
2015-Mar-30 04:24N 36°52' E 025°30'1112.6
2015-Mar-30 03:33N 36°54' E 025°43'4 1.0
2015-Mar-29 23:28N 36°56' E 025°39'7 7.6
2015-Mar-29 22:32N 36°52' E 025°31'1312.9
2015-Mar-29 21:33N 37°01' E 025°19'10 9.7
2015-Mar-29 20:33N 37°10' E 025°15'7615.1
2015-Mar-29 15:33N 37°38' E 023°47'1919.4
2015-Mar-29 14:33N 37°56' E 023°38'1 0.6
2015-Mar-29 13:33N 37°57' E 023°38'0 0.0
2015-Mar-29 12:34N 37°57' E 023°38'1211.7
2015-Mar-29 11:33N 37°46' E 023°43'6321.1
2015-Mar-29 08:33N 37°15' E 024°52'2512.4
2015-Mar-29 06:33N 37°06' E 025°22'16 7.9
2015-Mar-29 04:32N 36°52' E 025°31'1411.6
2015-Mar-29 03:17N 36°51' E 025°49'5 0.2
2015-Mar-28 00:33N 36°53' E 025°43'10 9.6
2015-Mar-27 23:28N 36°52' E 025°31'1314.0
2015-Mar-27 22:33N 37°01' E 025°19'6 5.7
2015-Mar-27 21:33N 37°06' E 025°22'13 8.9
2015-Mar-27 20:06N 37°07' E 025°06'1221.4
2015-Mar-27 19:33N 37°14' E 024°54'6120.5
2015-Mar-27 16:33N 37°40' E 023°44'1817.6
2015-Mar-27 15:33N 37°57' E 023°38'0 0.0
2015-Mar-27 14:33N 37°57' E 023°38'0 0.0
2015-Mar-27 13:33N 37°57' E 023°38'0 0.0
2015-Mar-27 12:33N 37°57' E 023°38'0 0.0
2015-Mar-27 11:33N 37°57' E 023°38'0 0.0
2015-Mar-27 10:33N 37°57' E 023°38'0 0.0
2015-Mar-27 09:33N 37°57' E 023°38'0 0.0
2015-Mar-27 08:33N 37°57' E 023°38'0 0.0
2015-Mar-27 07:31N 37°57' E 023°38'0 0.0
2015-Mar-27 06:21N 37°57' E 023°38'0 0.0
2015-Mar-27 05:30N 37°57' E 023°38'0 0.0
2015-Mar-27 04:33N 37°57' E 023°38'0 0.0
2015-Mar-27 03:03N 37°57' E 023°38'0 0.0
2015-Mar-27 01:33N 37°57' E 023°38'0 0.0
2015-Mar-27 00:30N 37°57' E 023°38'0 0.0
2015-Mar-26 23:25N 37°57' E 023°38'0 0.0
2015-Mar-26 22:23N 37°57' E 023°38'0 0.0
2015-Mar-26 21:33N 37°57' E 023°38'0 0.0
2015-Mar-26 20:31N 37°57' E 023°38'0 0.0
2015-Mar-26 19:23N 37°57' E 023°38'0 0.0
2015-Mar-26 18:33N 37°57' E 023°38'0 0.0
2015-Mar-26 17:20N 37°57' E 023°38'0 0.0
2015-Mar-26 13:33N 37°57' E 023°38'10 9.8
2015-Mar-26 12:33N 37°48' E 023°42'6521.6
2015-Mar-26 09:33N 37°16' E 024°53'2512.5
2015-Mar-26 07:33N 37°06' E 025°22'1411.1
2015-Mar-26 06:17N 37°12' E 025°38'4110.1
2015-Mar-26 02:14N 36°43' E 026°14'36 9.9
2015-Mar-25 22:33N 37°08' E 025°42'1615.7
2015-Mar-25 21:34N 37°06' E 025°22'2110.6
2015-Mar-25 19:34N 37°12' E 024°57'6320.8
2015-Mar-25 16:31N 37°39' E 023°44'18 5.7
2015-Mar-25 13:20N 37°57' E 023°38'910.8
2015-Mar-25 12:33N 37°49' E 023°41'6521.8
2015-Mar-25 09:33N 37°16' E 024°52'2512.8
2015-Mar-25 07:33N 37°06' E 025°22'6 5.9
2015-Mar-25 06:33N 37°01' E 025°19'25 4.8
2015-Mar-25 01:17N 36°51' E 025°48'1213.8
2015-Mar-25 00:26N 36°53' E 025°34'1310.3
2015-Mar-24 23:12N 36°59' E 025°20'711.4
2015-Mar-24 22:33N 37°06' E 025°22'3510.1
2015-Mar-24 19:04N 37°32' E 024°51'5320.8
2015-Mar-24 16:31N 37°39' E 023°45'1818.3
2015-Mar-24 15:31N 37°57' E 023°38'0 0.1
2015-Mar-24 14:21N 37°57' E 023°38'0 0.0
2015-Mar-24 13:07N 37°57' E 023°38'915.8
2015-Mar-24 12:33N 37°48' E 023°41'6521.8
2015-Mar-24 09:33N 37°15' E 024°52'2512.4
2015-Mar-24 07:34N 37°07' E 025°21'1510.7
2015-Mar-24 06:09N 37°10' E 025°40'4 0.5
2015-Mar-23 22:33N 37°07' E 025°44'1717.5
2015-Mar-23 21:33N 37°07' E 025°22'19 9.6
2015-Mar-23 19:33N 37°09' E 024°58'6421.4
2015-Mar-23 16:33N 37°38' E 023°46'2019.0
2015-Mar-23 15:31N 37°57' E 023°38'0 0.1
2015-Mar-23 14:28N 37°57' E 023°38'0 0.0
2015-Mar-23 13:05N 37°57' E 023°38'815.1
2015-Mar-23 12:33N 37°49' E 023°41'6521.8
2015-Mar-23 09:33N 37°16' E 024°52'2612.8
2015-Mar-23 07:33N 37°07' E 025°22'5 5.4
2015-Mar-23 06:34N 37°02' E 025°19'1311.4
2015-Mar-23 05:23N 36°52' E 025°31'1010.9
2015-Mar-23 04:26N 36°54' E 025°43'4 1.1
2015-Mar-23 00:33N 36°51' E 025°47'1311.2
2015-Mar-22 23:22N 36°52' E 025°31'1214.1
2015-Mar-22 22:33N 36°60' E 025°20'1110.6
2015-Mar-22 21:33N 37°10' E 025°17'10 8.8
2015-Mar-22 20:25N 37°11' E 025°05'7017.6
2015-Mar-22 16:28N 37°39' E 023°45'1819.7
2015-Mar-22 15:33N 37°56' E 023°38'0 0.4
2015-Mar-22 14:26N 37°57' E 023°38'0 0.0
2015-Mar-22 13:19N 37°57' E 023°38'912.4
2015-Mar-22 12:33N 37°48' E 023°42'6521.6
2015-Mar-22 09:33N 37°15' E 024°52'2512.3
2015-Mar-22 07:33N 37°07' E 025°21'16 8.0
2015-Mar-22 05:32N 36°52' E 025°30'14 0.5
2015-Mar-21 00:33N 36°51' E 025°47'1313.0
2015-Mar-20 23:32N 36°54' E 025°31'10 8.6
2015-Mar-20 22:21N 36°59' E 025°20'7 9.2
2015-Mar-20 21:34N 37°06' E 025°22'2010.1
2015-Mar-20 19:34N 37°09' E 024°57'6421.3
2015-Mar-20 16:34N 37°38' E 023°46'2018.9
2015-Mar-20 15:31N 37°57' E 023°38'0 0.1
2015-Mar-20 14:29N 37°57' E 023°38'0 0.0
2015-Mar-20 13:10N 37°57' E 023°38'1016.3
2015-Mar-20 12:33N 37°47' E 023°42'6421.2
2015-Mar-20 09:33N 37°15' E 024°52'2612.9
2015-Mar-20 07:34N 37°07' E 025°22'  
Track history (hours):
 
Tides and Currents Weather Stations Pressure Air Temp Water Temp Dewpoint Dewpoint Depression Visibility Wind Speed Wind Dir Waves Ship Positions

Blue Star Naxos

Last reported at 2015-Mar-30 06:33 UTC. Time now 2015-Mar-30 07:08 UTC.
Position N 37°06' E 025°22'.

Length 124 m; draft 5 m.

Type: Passenger vessel. MMSI: 239923000.

Date/timePositionNaut miles runAvg speedWind from/ knotsBaromVisibWave heightAir tempDewpointWater temp
2015-Mar-30 06:33N 37°06' E 025°22'6 6.4
2015-Mar-30 05:33N 37°00' E 025°19'1210.3
2015-Mar-30 04:24N 36°52' E 025°30'1112.6
2015-Mar-30 03:33N 36°54' E 025°43'4 1.0
2015-Mar-29 23:28N 36°56' E 025°39'7 7.6
2015-Mar-29 22:32N 36°52' E 025°31'1312.9
2015-Mar-29 21:33N 37°01' E 025°19'10 9.7
2015-Mar-29 20:33N 37°10' E 025°15'7615.1
2015-Mar-29 15:33N 37°38' E 023°47'1919.4
2015-Mar-29 14:33N 37°56' E 023°38'1 0.6
2015-Mar-29 13:33N 37°57' E 023°38'0 0.0
2015-Mar-29 12:34N 37°57' E 023°38'1211.7
2015-Mar-29 11:33N 37°46' E 023°43'6321.1
2015-Mar-29 08:33N 37°15' E 024°52'2512.4
2015-Mar-29 06:33N 37°06' E 025°22'16 7.9
2015-Mar-29 04:32N 36°52' E 025°31'1411.6
2015-Mar-29 03:17N 36°51' E 025°49'5 0.2
2015-Mar-28 00:33N 36°53' E 025°43'10 9.6
2015-Mar-27 23:28N 36°52' E 025°31'1314.0
2015-Mar-27 22:33N 37°01' E 025°19'6 5.7
2015-Mar-27 21:33N 37°06' E 025°22'13 8.9
2015-Mar-27 20:06N 37°07' E 025°06'1221.4
2015-Mar-27 19:33N 37°14' E 024°54'6120.5
2015-Mar-27 16:33N 37°40' E 023°44'1817.6
2015-Mar-27 15:33N 37°57' E 023°38'0 0.0
2015-Mar-27 14:33N 37°57' E 023°38'0 0.0
2015-Mar-27 13:33N 37°57' E 023°38'0 0.0
2015-Mar-27 12:33N 37°57' E 023°38'0 0.0
2015-Mar-27 11:33N 37°57' E 023°38'0 0.0
2015-Mar-27 10:33N 37°57' E 023°38'0 0.0
2015-Mar-27 09:33N 37°57' E 023°38'0 0.0
2015-Mar-27 08:33N 37°57' E 023°38'0 0.0
2015-Mar-27 07:31N 37°57' E 023°38'0 0.0
2015-Mar-27 06:21N 37°57' E 023°38'0 0.0
2015-Mar-27 05:30N 37°57' E 023°38'0 0.0
2015-Mar-27 04:33N 37°57' E 023°38'0 0.0
2015-Mar-27 03:03N 37°57' E 023°38'0 0.0
2015-Mar-27 01:33N 37°57' E 023°38'0 0.0
2015-Mar-27 00:30N 37°57' E 023°38'0 0.0
2015-Mar-26 23:25N 37°57' E 023°38'0 0.0
2015-Mar-26 22:23N 37°57' E 023°38'0 0.0
2015-Mar-26 21:33N 37°57' E 023°38'0 0.0
2015-Mar-26 20:31N 37°57' E 023°38'0 0.0
2015-Mar-26 19:23N 37°57' E 023°38'0 0.0
2015-Mar-26 18:33N 37°57' E 023°38'0 0.0
2015-Mar-26 17:20N 37°57' E 023°38'0 0.0
2015-Mar-26 13:33N 37°57' E 023°38'10 9.8
2015-Mar-26 12:33N 37°48' E 023°42'6521.6
2015-Mar-26 09:33N 37°16' E 024°53'2512.5
2015-Mar-26 07:33N 37°06' E 025°22'1411.1
2015-Mar-26 06:17N 37°12' E 025°38'4110.1
2015-Mar-26 02:14N 36°43' E 026°14'36 9.9
2015-Mar-25 22:33N 37°08' E 025°42'1615.7
2015-Mar-25 21:34N 37°06' E 025°22'2110.6
2015-Mar-25 19:34N 37°12' E 024°57'6320.8
2015-Mar-25 16:31N 37°39' E 023°44'18 5.7
2015-Mar-25 13:20N 37°57' E 023°38'910.8
2015-Mar-25 12:33N 37°49' E 023°41'6521.8
2015-Mar-25 09:33N 37°16' E 024°52'2512.8
2015-Mar-25 07:33N 37°06' E 025°22'6 5.9
2015-Mar-25 06:33N 37°01' E 025°19'25 4.8
2015-Mar-25 01:17N 36°51' E 025°48'1213.8
2015-Mar-25 00:26N 36°53' E 025°34'1310.3
2015-Mar-24 23:12N 36°59' E 025°20'711.4
2015-Mar-24 22:33N 37°06' E 025°22'3510.1
2015-Mar-24 19:04N 37°32' E 024°51'5320.8
2015-Mar-24 16:31N 37°39' E 023°45'1818.3
2015-Mar-24 15:31N 37°57' E 023°38'0 0.1
2015-Mar-24 14:21N 37°57' E 023°38'0 0.0
2015-Mar-24 13:07N 37°57' E 023°38'915.8
2015-Mar-24 12:33N 37°48' E 023°41'6521.8
2015-Mar-24 09:33N 37°15' E 024°52'2512.4
2015-Mar-24 07:34N 37°07' E 025°21'1510.7
2015-Mar-24 06:09N 37°10' E 025°40'4 0.5
2015-Mar-23 22:33N 37°07' E 025°44'1717.5
2015-Mar-23 21:33N 37°07' E 025°22'19 9.6
2015-Mar-23 19:33N 37°09' E 024°58'6421.4
2015-Mar-23 16:33N 37°38' E 023°46'2019.0
2015-Mar-23 15:31N 37°57' E 023°38'0 0.1
2015-Mar-23 14:28N 37°57' E 023°38'0 0.0
2015-Mar-23 13:05N 37°57' E 023°38'815.1
2015-Mar-23 12:33N 37°49' E 023°41'6521.8
2015-Mar-23 09:33N 37°16' E 024°52'2612.8
2015-Mar-23 07:33N 37°07' E 025°22'5 5.4
2015-Mar-23 06:34N 37°02' E 025°19'1311.4
2015-Mar-23 05:23N 36°52' E 025°31'1010.9
2015-Mar-23 04:26N 36°54' E 025°43'4 1.1
2015-Mar-23 00:33N 36°51' E 025°47'1311.2
2015-Mar-22 23:22N 36°52' E 025°31'1214.1
2015-Mar-22 22:33N 36°60' E 025°20'1110.6
2015-Mar-22 21:33N 37°10' E 025°17'10 8.8
2015-Mar-22 20:25N 37°11' E 025°05'7017.6
2015-Mar-22 16:28N 37°39' E 023°45'1819.7
2015-Mar-22 15:33N 37°56' E 023°38'0 0.4
2015-Mar-22 14:26N 37°57' E 023°38'0 0.0
2015-Mar-22 13:19N 37°57' E 023°38'912.4
2015-Mar-22 12:33N 37°48' E 023°42'6521.6
2015-Mar-22 09:33N 37°15' E 024°52'2512.3
2015-Mar-22 07:33N 37°07' E 025°21'16 8.0
2015-Mar-22 05:32N 36°52' E 025°30'14 0.5
2015-Mar-21 00:33N 36°51' E 025°47'1313.0
2015-Mar-20 23:32N 36°54' E 025°31'10 8.6
2015-Mar-20 22:21N 36°59' E 025°20'7 9.2
2015-Mar-20 21:34N 37°06' E 025°22'2010.1
2015-Mar-20 19:34N 37°09' E 024°57'6421.3
2015-Mar-20 16:34N 37°38' E 023°46'2018.9
2015-Mar-20 15:31N 37°57' E 023°38'0 0.1
2015-Mar-20 14:29N 37°57' E 023°38'0 0.0
2015-Mar-20 13:10N 37°57' E 023°38'1016.3
2015-Mar-20 12:33N 37°47' E 023°42'6421.2
2015-Mar-20 09:33N 37°15' E 024°52'2612.9
2015-Mar-20 07:34N 37°07' E 025°22'  

Dump ship's entire track history